createdAt,value
2019-02-22T00:02:15.992Z,99.90
2019-02-22T00:04:44.811Z,99.90
2019-02-22T00:07:13.644Z,99.90
2019-02-22T00:09:49.465Z,99.90
2019-02-22T00:12:13.016Z,99.90
2019-02-22T00:14:41.863Z,99.90
2019-02-22T00:17:10.691Z,99.90
2019-02-22T00:19:39.507Z,99.90
2019-02-22T00:22:08.384Z,99.90
2019-02-22T00:24:37.254Z,99.90
2019-02-22T00:27:06.025Z,99.90
2019-02-22T00:29:34.818Z,99.90
2019-02-22T00:32:03.676Z,99.90
2019-02-22T00:34:32.505Z,99.90
2019-02-22T00:37:01.346Z,99.90
2019-02-22T00:39:30.150Z,99.90
2019-02-22T00:41:58.946Z,99.90
2019-02-22T00:44:27.831Z,99.90
2019-02-22T00:46:56.688Z,99.90
2019-02-22T00:49:25.592Z,99.90
2019-02-22T00:51:54.443Z,99.90
2019-02-22T00:54:23.307Z,99.90
2019-02-22T00:56:52.091Z,99.90
2019-02-22T00:59:20.905Z,99.90
2019-02-22T01:01:49.681Z,99.90
2019-02-22T01:04:18.527Z,99.90
2019-02-22T01:06:47.336Z,99.90
2019-02-22T01:09:16.201Z,99.90
2019-02-22T01:11:45.020Z,99.90
2019-02-22T01:14:13.834Z,99.90
2019-02-22T01:16:42.637Z,99.90
2019-02-22T01:19:11.425Z,99.90
2019-02-22T01:21:40.284Z,99.90
2019-02-22T01:24:09.158Z,99.90
2019-02-22T01:26:37.945Z,99.90
2019-02-22T01:29:06.809Z,99.90
2019-02-22T01:34:19.271Z,99.90
2019-02-22T01:36:48.099Z,99.90
2019-02-22T01:39:16.939Z,99.90
2019-02-22T01:41:45.777Z,99.90
2019-02-22T01:44:20.100Z,99.90
2019-02-22T01:46:49.056Z,99.90
2019-02-22T01:49:17.856Z,99.90
2019-02-22T01:51:46.620Z,99.90
2019-02-22T01:54:15.430Z,99.90
2019-02-22T01:56:44.237Z,99.90
2019-02-22T01:59:13.030Z,99.90
2019-02-22T02:01:41.910Z,99.90
2019-02-22T02:04:10.691Z,99.90
2019-02-22T02:06:39.485Z,99.90
2019-02-22T02:09:08.452Z,99.90
2019-02-22T02:11:37.320Z,99.90
2019-02-22T02:14:06.302Z,99.90
2019-02-22T02:16:35.121Z,99.90
2019-02-22T02:19:04.027Z,99.90
2019-02-22T02:21:32.812Z,99.90
2019-02-22T02:24:01.578Z,99.90
2019-02-22T02:26:30.385Z,99.90
2019-02-22T02:28:59.185Z,99.90
2019-02-22T02:31:28.057Z,99.90
2019-02-22T02:33:56.839Z,99.90
2019-02-22T02:36:25.710Z,99.90
2019-02-22T02:38:54.571Z,99.90
2019-02-22T02:41:23.408Z,99.90
2019-02-22T02:43:52.239Z,99.90
2019-02-22T02:46:21.076Z,99.90
2019-02-22T02:48:49.854Z,99.90
2019-02-22T02:51:18.664Z,99.90
2019-02-22T02:53:47.509Z,99.90
2019-02-22T02:56:16.288Z,99.90
2019-02-22T02:58:45.078Z,99.90
2019-02-22T03:01:13.885Z,99.90
2019-02-22T03:03:42.773Z,99.90
2019-02-22T03:06:18.814Z,99.90
2019-02-22T03:08:47.576Z,99.90
2019-02-22T03:11:20.585Z,99.90
2019-02-22T03:13:46.934Z,99.90
2019-02-22T03:16:16.044Z,99.90
2019-02-22T03:18:45.115Z,99.90
2019-02-22T03:21:13.938Z,99.90
2019-02-22T03:23:42.695Z,99.90
2019-02-22T03:26:11.489Z,99.90
2019-02-22T03:28:40.304Z,99.90
2019-02-22T03:31:09.170Z,99.90
2019-02-22T03:33:38.615Z,99.90
2019-02-22T03:36:07.489Z,99.90
2019-02-22T03:38:36.269Z,99.90
2019-02-22T03:41:05.175Z,99.90
2019-02-22T03:43:34.038Z,99.90
2019-02-22T03:46:02.900Z,99.90
2019-02-22T03:48:31.754Z,99.90
2019-02-22T03:51:00.639Z,99.90
2019-02-22T03:53:33.307Z,99.90
2019-02-22T03:56:02.125Z,99.90
2019-02-22T03:58:31.006Z,99.90
2019-02-22T04:00:59.853Z,99.90
2019-02-22T04:03:28.683Z,99.90
2019-02-22T04:05:57.605Z,99.90
2019-02-22T04:08:26.414Z,99.90
2019-02-22T04:10:55.252Z,99.90
2019-02-22T04:13:24.111Z,99.90
2019-02-22T04:15:52.907Z,99.90
2019-02-22T04:18:21.738Z,99.90
2019-02-22T04:20:51.997Z,99.90
2019-02-22T04:23:20.797Z,99.90
2019-02-22T04:25:49.656Z,99.90
2019-02-22T04:28:18.487Z,99.90
2019-02-22T04:30:47.252Z,99.90
2019-02-22T04:33:16.129Z,99.90
2019-02-22T04:35:45.018Z,99.90
2019-02-22T04:38:13.793Z,99.90
2019-02-22T04:40:42.583Z,99.90
2019-02-22T04:43:11.338Z,99.90
2019-02-22T04:45:40.225Z,99.90
2019-02-22T04:48:09.125Z,99.90
2019-02-22T04:50:38.083Z,99.90
2019-02-22T04:53:06.936Z,99.90
2019-02-22T04:55:35.787Z,99.90
2019-02-22T04:58:04.581Z,99.90
2019-02-22T05:00:33.381Z,99.90
2019-02-22T05:03:02.224Z,99.90
2019-02-22T05:05:31.041Z,99.90
2019-02-22T05:07:59.903Z,99.90
2019-02-22T05:10:28.690Z,99.90
2019-02-22T05:12:57.532Z,99.90
2019-02-22T05:15:26.394Z,99.90
2019-02-22T05:17:55.200Z,99.90
2019-02-22T05:20:24.035Z,99.90
2019-02-22T05:23:03.307Z,99.90
2019-02-22T05:25:23.482Z,99.90
2019-02-22T05:27:52.260Z,99.90
2019-02-22T05:30:21.038Z,99.90
2019-02-22T05:32:49.969Z,99.90
2019-02-22T05:35:18.859Z,99.90
2019-02-22T05:37:47.777Z,99.90
2019-02-22T05:40:16.765Z,99.90
2019-02-22T05:42:45.631Z,99.90
2019-02-22T05:45:14.483Z,99.90
2019-02-22T05:47:43.292Z,99.90
2019-02-22T05:50:12.139Z,99.90
2019-02-22T05:52:40.928Z,99.90
2019-02-22T05:55:09.725Z,99.90
2019-02-22T05:57:38.577Z,99.90
2019-02-22T06:00:07.664Z,99.90
2019-02-22T06:02:36.554Z,99.90
2019-02-22T06:05:05.765Z,99.90
2019-02-22T06:07:34.605Z,99.90
2019-02-22T06:10:03.619Z,99.90
2019-02-22T06:12:34.909Z,99.90
2019-02-22T06:15:03.151Z,99.90
2019-02-22T06:17:32.013Z,99.90
2019-02-22T06:20:00.787Z,99.90
2019-02-22T06:22:30.128Z,99.90
2019-02-22T06:24:59.085Z,99.90
2019-02-22T06:27:27.889Z,99.90
2019-02-22T06:29:56.701Z,99.90
2019-02-22T06:32:28.186Z,99.90
2019-02-22T06:34:57.111Z,99.90
2019-02-22T06:37:26.043Z,99.90
2019-02-22T06:39:54.919Z,99.90
2019-02-22T06:42:23.834Z,99.90
2019-02-22T06:44:52.711Z,99.90
2019-02-22T06:47:22.872Z,99.90
2019-02-22T06:49:51.909Z,99.90
2019-02-22T06:52:20.800Z,99.90
2019-02-22T06:54:49.654Z,99.90
2019-02-22T06:57:18.439Z,99.90
2019-02-22T06:59:47.325Z,99.90
2019-02-22T07:02:16.126Z,99.90
2019-02-22T07:04:44.945Z,99.90
2019-02-22T07:07:13.758Z,99.90
2019-02-22T07:09:42.608Z,99.90
2019-02-22T07:12:15.579Z,99.90
2019-02-22T07:14:44.386Z,99.90
2019-02-22T07:17:13.365Z,99.90
2019-02-22T07:19:42.219Z,99.90
2019-02-22T07:22:11.085Z,99.90
2019-02-22T07:24:39.910Z,99.90
2019-02-22T07:27:08.702Z,99.90
2019-02-22T07:29:37.630Z,99.90
2019-02-22T07:32:07.006Z,99.90
2019-02-22T07:34:35.832Z,99.90
2019-02-22T07:37:04.648Z,99.90
2019-02-22T07:39:33.467Z,99.90
2019-02-22T07:42:02.336Z,99.90
2019-02-22T07:44:31.512Z,99.90
2019-02-22T07:47:00.355Z,99.90
2019-02-22T07:49:29.215Z,99.90
2019-02-22T07:51:58.380Z,99.90
2019-02-22T07:54:27.235Z,99.90
2019-02-22T07:56:56.101Z,99.90
2019-02-22T07:59:25.010Z,99.90
2019-02-22T08:01:53.839Z,99.90
2019-02-22T08:04:22.792Z,99.90
2019-02-22T08:06:51.867Z,99.90
2019-02-22T08:09:20.626Z,99.90
2019-02-22T08:11:49.507Z,99.90
2019-02-22T08:14:18.261Z,99.90
2019-02-22T08:16:47.044Z,99.90
2019-02-22T08:19:15.884Z,99.90
2019-02-22T08:21:44.721Z,99.90
2019-02-22T08:24:13.584Z,99.90
2019-02-22T08:26:42.403Z,99.90
2019-02-22T08:29:11.324Z,99.90
2019-02-22T08:31:40.130Z,99.90
2019-02-22T08:34:09.057Z,99.90
2019-02-22T08:36:37.908Z,99.90
2019-02-22T08:39:06.762Z,99.90
2019-02-22T08:41:35.647Z,99.90
2019-02-22T08:44:04.800Z,99.90
2019-02-22T08:46:33.663Z,99.90
2019-02-22T08:49:02.598Z,99.90
2019-02-22T08:51:31.431Z,99.90
2019-02-22T08:54:00.287Z,99.90
2019-02-22T08:56:29.201Z,99.90
2019-02-22T08:58:58.138Z,99.90
2019-02-22T09:01:26.979Z,99.90
2019-02-22T09:03:55.773Z,99.90
2019-02-22T09:06:24.747Z,99.90
2019-02-22T09:08:53.644Z,99.90
2019-02-22T09:11:23.722Z,99.90
2019-02-22T09:13:52.598Z,99.90
2019-02-22T09:16:21.432Z,99.90
2019-02-22T09:18:50.274Z,99.90
2019-02-22T09:21:19.135Z,99.90
2019-02-22T09:23:48.055Z,99.90
2019-02-22T09:26:16.915Z,99.90
2019-02-22T09:28:45.737Z,99.90
2019-02-22T09:31:14.646Z,99.90
2019-02-22T09:33:43.500Z,99.90
2019-02-22T09:36:12.328Z,99.90
2019-02-22T09:38:41.170Z,99.90
2019-02-22T09:41:10.128Z,99.90
2019-02-22T09:43:39.065Z,99.90
2019-02-22T09:46:07.906Z,99.90
2019-02-22T09:48:36.888Z,98.60
2019-02-22T09:51:05.663Z,97.90
2019-02-22T09:53:34.489Z,98.30
2019-02-22T09:56:03.306Z,96.50
2019-02-22T09:58:32.155Z,97.70
2019-02-22T10:01:01.000Z,97.00
2019-02-22T10:03:29.753Z,95.20
2019-02-22T10:05:58.522Z,94.30
2019-02-22T10:08:27.366Z,92.60
2019-02-22T10:10:56.194Z,92.10
2019-02-22T10:13:24.999Z,91.00
2019-02-22T10:15:53.852Z,91.50
2019-02-22T10:18:22.635Z,91.00
2019-02-22T10:20:51.511Z,88.10
2019-02-22T10:23:20.305Z,84.90
2019-02-22T10:25:49.239Z,83.20
2019-02-22T10:28:18.293Z,81.60
2019-02-22T10:30:47.350Z,77.50
2019-02-22T10:33:16.217Z,78.80
2019-02-22T10:35:45.060Z,73.40
2019-02-22T10:38:13.976Z,67.80
2019-02-22T10:40:42.850Z,59.50
2019-02-22T10:43:11.689Z,51.00
2019-02-22T10:45:40.478Z,45.80
2019-02-22T10:48:09.277Z,42.00
2019-02-22T10:50:38.105Z,38.40
2019-02-22T10:53:06.974Z,36.70
2019-02-22T10:55:35.795Z,36.30
2019-02-22T10:58:04.731Z,32.80
2019-02-22T11:00:33.605Z,32.70
2019-02-22T11:03:02.443Z,32.60
2019-02-22T11:05:31.343Z,33.10
2019-02-22T11:08:00.140Z,32.90
2019-02-22T11:10:28.947Z,32.30
2019-02-22T11:12:57.899Z,31.40
2019-02-22T11:15:26.716Z,31.50
2019-02-22T11:17:55.588Z,30.90
2019-02-22T11:20:24.433Z,29.90
2019-02-22T11:22:53.310Z,29.70
2019-02-22T11:25:22.081Z,28.30
2019-02-22T11:27:51.052Z,28.10
2019-02-22T11:30:19.903Z,27.80
2019-02-22T11:32:48.678Z,26.90
2019-02-22T11:35:17.651Z,28.30
2019-02-22T11:37:46.712Z,27.80
2019-02-22T11:40:15.639Z,28.10
2019-02-22T11:42:44.423Z,26.50
2019-02-22T11:45:13.220Z,26.80
2019-02-22T11:47:42.018Z,28.10
2019-02-22T11:50:10.938Z,27.00
2019-02-22T11:52:39.870Z,27.90
2019-02-22T11:55:08.989Z,28.40
2019-02-22T11:57:40.847Z,26.90
2019-02-22T12:00:12.464Z,26.30
2019-02-22T12:02:41.385Z,25.50
2019-02-22T12:05:10.315Z,25.50
2019-02-22T12:07:39.160Z,25.60
2019-02-22T12:10:08.135Z,27.30
2019-02-22T12:12:36.993Z,26.20
2019-02-22T12:15:06.178Z,25.80
2019-02-22T12:17:35.145Z,25.00
2019-02-22T12:20:04.018Z,24.40
2019-02-22T12:22:32.792Z,25.30
2019-02-22T12:25:01.580Z,23.50
2019-02-22T12:27:30.386Z,24.00
2019-02-22T12:29:59.215Z,24.80
2019-02-22T12:32:28.093Z,24.80
2019-02-22T12:34:57.027Z,24.60
2019-02-22T12:37:25.878Z,24.90
2019-02-22T12:39:54.915Z,23.90
2019-02-22T12:42:23.728Z,24.20
2019-02-22T12:45:02.483Z,25.10
2019-02-22T12:47:23.359Z,24.00
2019-02-22T12:49:52.125Z,23.80
2019-02-22T12:52:23.852Z,23.80
2019-02-22T12:54:55.906Z,24.80
2019-02-22T12:57:34.612Z,23.70
2019-02-22T13:00:08.050Z,21.90
2019-02-22T13:03:01.266Z,23.30
2019-02-22T13:05:20.650Z,23.70
2019-02-22T13:07:48.941Z,26.00
2019-02-22T13:10:19.310Z,26.80
2019-02-22T13:12:52.519Z,27.70
2019-02-22T13:15:21.049Z,28.90
2019-02-22T13:17:50.145Z,30.00
2019-02-22T13:20:18.938Z,31.40
2019-02-22T13:22:46.916Z,32.50
2019-02-22T13:25:18.776Z,33.10
2019-02-22T13:27:50.498Z,33.70
2019-02-22T13:30:18.465Z,34.70
2019-02-22T13:32:47.150Z,34.70
2019-02-22T13:35:15.606Z,33.90
2019-02-22T13:37:43.782Z,34.40
2019-02-22T13:40:12.409Z,36.20
2019-02-22T13:42:40.334Z,38.00
2019-02-22T13:45:08.621Z,38.50
2019-02-22T13:47:36.541Z,39.60
2019-02-22T13:50:04.814Z,40.30
2019-02-22T13:52:32.811Z,39.50
2019-02-22T13:55:00.725Z,36.30
2019-02-22T13:57:30.331Z,30.90
2019-02-22T13:59:58.406Z,28.20
2019-02-22T14:02:26.292Z,28.00
2019-02-22T14:04:54.324Z,28.00
2019-02-22T14:07:50.144Z,26.40
2019-02-22T14:10:19.489Z,24.20
2019-02-22T14:12:48.245Z,25.30
2019-02-22T14:15:18.818Z,25.80
2019-02-22T14:17:47.561Z,26.80
2019-02-22T14:20:16.485Z,27.70
2019-02-22T14:22:44.439Z,28.90
2019-02-22T14:25:12.464Z,29.50
2019-02-22T14:27:40.415Z,31.00
2019-02-22T14:30:09.260Z,33.10
2019-02-22T14:32:37.219Z,34.30
2019-02-22T14:35:05.452Z,34.60
2019-02-22T14:37:33.458Z,35.10
2019-02-22T14:40:03.874Z,36.30
2019-02-22T14:42:31.102Z,36.20
2019-02-22T14:45:01.280Z,36.90
2019-02-22T14:47:28.727Z,36.70
2019-02-22T14:49:56.598Z,37.50
2019-02-22T14:52:24.603Z,38.40
2019-02-22T14:54:52.503Z,39.20
2019-02-22T14:57:20.387Z,39.80
2019-02-22T14:59:48.312Z,40.10
2019-02-22T15:02:16.409Z,40.70
2019-02-22T15:04:44.353Z,41.30
2019-02-22T15:07:12.264Z,41.30
2019-02-22T15:09:40.217Z,40.70
2019-02-22T15:12:08.196Z,41.50
2019-02-22T15:14:36.196Z,40.80
2019-02-22T15:17:41.754Z,41.20
2019-02-22T15:20:09.816Z,42.00
2019-02-22T15:22:37.823Z,43.50
2019-02-22T15:25:06.822Z,43.40
2019-02-22T15:27:36.342Z,43.90
2019-02-22T15:30:04.674Z,44.00
2019-02-22T15:32:32.646Z,44.20
2019-02-22T15:35:00.604Z,44.40
2019-02-22T15:37:28.514Z,44.40
2019-02-22T15:39:56.438Z,44.30
2019-02-22T15:42:24.484Z,44.30
2019-02-22T15:44:52.535Z,45.10
2019-02-22T15:47:20.576Z,45.00
2019-02-22T15:49:49.135Z,44.90
2019-02-22T15:52:17.207Z,45.80
2019-02-22T15:54:47.913Z,46.00
2019-02-22T15:57:15.999Z,46.30
2019-02-22T15:59:44.007Z,46.70
2019-02-22T16:02:12.004Z,45.90
2019-02-22T16:04:45.251Z,46.10
2019-02-22T16:07:13.566Z,46.10
2019-02-22T16:09:41.539Z,45.00
2019-02-22T16:12:09.528Z,46.10
2019-02-22T16:14:37.582Z,46.00
2019-02-22T16:17:05.610Z,46.30
2019-02-22T16:19:33.514Z,47.70
2019-02-22T16:22:01.523Z,47.30
2019-02-22T16:24:29.400Z,47.90
2019-02-22T16:27:03.343Z,47.90
2019-02-22T16:29:31.956Z,47.40
2019-02-22T16:31:59.925Z,46.60
2019-02-22T16:34:27.924Z,46.80
2019-02-22T16:36:56.011Z,46.60
2019-02-22T16:39:23.937Z,46.50
2019-02-22T16:41:51.931Z,46.00
2019-02-22T16:44:19.943Z,46.00
2019-02-22T16:46:48.117Z,46.60
2019-02-22T16:49:16.103Z,47.20
2019-02-22T16:51:44.092Z,47.00
2019-02-22T16:54:12.127Z,47.50
2019-02-22T16:56:40.024Z,48.00
2019-02-22T16:59:07.937Z,48.20
2019-02-22T17:01:35.807Z,48.30
2019-02-22T17:04:03.705Z,48.70
2019-02-22T17:06:31.729Z,49.50
2019-02-22T17:08:59.686Z,48.70
2019-02-22T17:11:27.603Z,49.00
2019-02-22T17:13:55.568Z,49.80
2019-02-22T17:16:23.500Z,49.90
2019-02-22T17:18:51.478Z,49.90
2019-02-22T17:21:19.523Z,49.60
2019-02-22T17:23:47.517Z,49.20
2019-02-22T17:26:15.906Z,48.60
2019-02-22T17:28:43.813Z,49.00
2019-02-22T17:31:11.839Z,48.80
2019-02-22T17:33:39.740Z,48.30
2019-02-22T17:36:07.671Z,48.40
2019-02-22T17:38:35.788Z,47.90
2019-02-22T17:41:04.020Z,47.80
2019-02-22T17:43:32.014Z,47.60
2019-02-22T17:45:59.917Z,47.90
2019-02-22T17:48:27.881Z,48.70
2019-02-22T17:50:55.793Z,48.80
2019-02-22T17:53:23.726Z,48.70
2019-02-22T17:55:51.651Z,48.80
2019-02-22T17:58:24.387Z,49.90
2019-02-22T18:00:49.623Z,49.50
2019-02-22T18:03:17.537Z,49.70
2019-02-22T18:05:45.558Z,50.00
2019-02-22T18:08:16.030Z,50.80
2019-02-22T18:10:43.918Z,51.40
2019-02-22T18:13:12.581Z,52.30
2019-02-22T18:15:40.598Z,52.90
2019-02-22T18:18:08.569Z,53.20
2019-02-22T18:20:36.564Z,53.60
2019-02-22T18:23:04.540Z,54.50
2019-02-22T18:25:32.544Z,54.60
2019-02-22T18:28:00.491Z,54.70
2019-02-22T18:30:28.420Z,54.40
2019-02-22T18:32:56.443Z,55.20
2019-02-22T18:35:24.529Z,55.90
2019-02-22T18:37:52.507Z,56.40
2019-02-22T18:40:20.629Z,56.20
2019-02-22T18:42:48.567Z,55.80
2019-02-22T18:45:16.633Z,56.10
2019-02-22T18:47:44.607Z,57.00
2019-02-22T18:50:12.674Z,56.90
2019-02-22T18:52:40.633Z,57.50
2019-02-22T18:55:08.671Z,57.90
2019-02-22T18:57:36.571Z,58.20
2019-02-22T19:00:07.545Z,56.40
2019-02-22T19:02:34.837Z,56.30
2019-02-22T19:05:02.767Z,57.00
2019-02-22T19:07:30.655Z,57.70
2019-02-22T19:09:58.577Z,58.30
2019-02-22T19:12:26.460Z,57.80
2019-02-22T19:14:54.365Z,57.80
2019-02-22T19:17:30.159Z,57.70
2019-02-22T19:19:51.969Z,58.00
2019-02-22T19:22:19.971Z,58.30
2019-02-22T19:24:48.037Z,58.20
2019-02-22T19:27:16.044Z,58.60
2019-02-22T19:29:43.997Z,58.40
2019-02-22T19:32:11.938Z,58.30
2019-02-22T19:34:39.971Z,58.90
2019-02-22T19:37:09.061Z,58.70
2019-02-22T19:39:37.246Z,59.60
2019-02-22T19:42:05.213Z,59.80
2019-02-22T19:44:35.192Z,60.20
2019-02-22T19:47:03.346Z,60.20
2019-02-22T19:49:31.332Z,60.20
2019-02-22T19:51:59.240Z,60.40
2019-02-22T19:54:27.280Z,60.20
2019-02-22T19:56:55.501Z,60.00
2019-02-22T19:59:23.425Z,59.60
2019-02-22T20:01:51.314Z,59.00
2019-02-22T20:04:19.244Z,58.70
2019-02-22T20:06:47.181Z,58.30
2019-02-22T20:09:15.139Z,58.60
2019-02-22T20:11:43.147Z,58.10
2019-02-22T20:14:11.080Z,58.50
2019-02-22T20:16:38.986Z,58.00
2019-02-22T20:19:06.981Z,57.70
2019-02-22T20:21:34.947Z,57.00
2019-02-22T20:24:02.870Z,57.50
2019-02-22T20:26:30.856Z,57.40
2019-02-22T20:28:58.828Z,57.00
2019-02-22T20:31:26.868Z,56.50
2019-02-22T20:33:54.949Z,56.10
2019-02-22T20:36:28.367Z,55.70
2019-02-22T20:38:52.739Z,55.40
2019-02-22T20:41:20.771Z,55.40
2019-02-22T20:43:48.842Z,54.80
2019-02-22T20:46:16.834Z,53.50
2019-02-22T20:48:44.784Z,53.10
2019-02-22T20:51:12.790Z,52.60
2019-02-22T20:53:40.742Z,52.90
2019-02-22T20:56:15.020Z,53.30
2019-02-22T20:58:46.209Z,53.20
2019-02-22T21:01:15.037Z,53.10
2019-02-22T21:03:43.168Z,52.90
2019-02-22T21:06:11.252Z,53.30
2019-02-22T21:08:40.793Z,53.70
2019-02-22T21:11:08.771Z,53.80
2019-02-22T21:13:36.660Z,54.00
2019-02-22T21:16:04.543Z,54.00
2019-02-22T21:18:32.677Z,54.70
2019-02-22T21:21:00.567Z,55.00
2019-02-22T21:23:28.457Z,54.90
2019-02-22T21:25:56.351Z,55.30
2019-02-22T21:28:24.408Z,55.60
2019-02-22T21:30:52.340Z,55.90
2019-02-22T21:33:20.260Z,56.20
2019-02-22T21:35:48.313Z,56.90
2019-02-22T21:38:16.414Z,56.80
2019-02-22T21:40:44.524Z,57.40
2019-02-22T21:43:12.469Z,57.30
2019-02-22T21:45:40.378Z,57.00
2019-02-22T21:48:08.335Z,57.40
2019-02-22T21:50:36.297Z,57.20
2019-02-22T21:53:06.746Z,57.70
2019-02-22T21:55:34.741Z,58.00
2019-02-22T21:58:02.762Z,58.80
2019-02-22T22:00:30.775Z,57.90
2019-02-22T22:02:58.698Z,57.90
2019-02-22T22:05:26.690Z,58.10
2019-02-22T22:07:54.794Z,58.40
2019-02-22T22:10:22.737Z,58.40
2019-02-22T22:12:50.734Z,58.40
2019-02-22T22:15:18.737Z,58.70
2019-02-22T22:17:46.693Z,58.60
2019-02-22T22:20:14.627Z,59.10
2019-02-22T22:22:42.542Z,59.20
2019-02-22T22:25:10.557Z,58.60
2019-02-22T22:27:38.618Z,59.00
2019-02-22T22:30:08.447Z,59.50
2019-02-22T22:32:36.427Z,59.60
2019-02-22T22:35:04.528Z,60.80
2019-02-22T22:37:32.498Z,60.50
2019-02-22T22:40:00.507Z,60.60
2019-02-22T22:42:28.973Z,61.20
2019-02-22T22:44:57.044Z,61.30
2019-02-22T22:47:25.199Z,61.10
2019-02-22T22:49:53.097Z,61.50
2019-02-22T22:52:21.018Z,61.70
2019-02-22T22:54:48.898Z,61.90
2019-02-22T22:57:16.847Z,61.90
2019-02-22T22:59:44.793Z,61.60
2019-02-22T23:02:12.742Z,62.10
2019-02-22T23:04:40.689Z,62.70
2019-02-22T23:07:08.887Z,62.90
2019-02-22T23:09:36.850Z,62.60
2019-02-22T23:12:05.327Z,62.30
2019-02-22T23:14:33.540Z,62.10
2019-02-22T23:17:01.537Z,62.70
2019-02-22T23:19:29.513Z,63.30
2019-02-22T23:21:57.491Z,62.70
2019-02-22T23:24:25.602Z,63.10
2019-02-22T23:26:53.503Z,63.40
2019-02-22T23:29:21.476Z,64.00
2019-02-22T23:31:49.356Z,64.80
2019-02-22T23:34:17.262Z,64.60
2019-02-22T23:36:45.153Z,64.40
2019-02-22T23:39:13.051Z,64.00
2019-02-22T23:41:40.931Z,62.70
2019-02-22T23:44:10.705Z,62.30
2019-02-22T23:46:40.813Z,63.50
2019-02-22T23:49:13.281Z,64.20
2019-02-22T23:51:38.042Z,64.70
2019-02-22T23:54:06.004Z,64.10
2019-02-22T23:56:33.889Z,64.10
2019-02-22T23:59:01.822Z,64.20
